sensor_id;sensor_type;location;lat;lon;timestamp;P1;durP1;ratioP1;P2;durP2;ratioP2
67378;SDS011;54262;44.642;-0.974;2024-02-04T00:00:34;20.30;;;18.63;;
67378;SDS011;54262;44.642;-0.974;2024-02-04T00:03:00;26.25;;;23.60;;
67378;SDS011;54262;44.642;-0.974;2024-02-04T00:05:29;19.73;;;18.02;;
67378;SDS011;54262;44.642;-0.974;2024-02-04T00:07:58;23.20;;;20.90;;
67378;SDS011;54262;44.642;-0.974;2024-02-04T00:10:23;22.25;;;20.25;;
67378;SDS011;54262;44.642;-0.974;2024-02-04T00:12:50;26.15;;;23.52;;
67378;SDS011;54262;44.642;-0.974;2024-02-04T00:15:18;34.25;;;28.80;;
67378;SDS011;54262;44.642;-0.974;2024-02-04T00:17:44;30.80;;;24.45;;
67378;SDS011;54262;44.642;-0.974;2024-02-04T00:20:10;54.15;;;37.13;;
67378;SDS011;54262;44.642;-0.974;2024-02-04T00:22:36;44.65;;;29.42;;
67378;SDS011;54262;44.642;-0.974;2024-02-04T00:25:01;42.92;;;32.20;;
67378;SDS011;54262;44.642;-0.974;2024-02-04T00:27:30;44.25;;;35.38;;
67378;SDS011;54262;44.642;-0.974;2024-02-04T00:29:57;48.88;;;33.30;;
67378;SDS011;54262;44.642;-0.974;2024-02-04T00:32:23;34.72;;;29.42;;
67378;SDS011;54262;44.642;-0.974;2024-02-04T00:34:49;31.98;;;25.17;;
67378;SDS011;54262;44.642;-0.974;2024-02-04T00:37:15;42.67;;;31.45;;
67378;SDS011;54262;44.642;-0.974;2024-02-04T00:39:41;29.67;;;26.60;;
67378;SDS011;54262;44.642;-0.974;2024-02-04T00:42:06;36.40;;;29.48;;
67378;SDS011;54262;44.642;-0.974;2024-02-04T00:44:32;43.83;;;28.77;;
67378;SDS011;54262;44.642;-0.974;2024-02-04T00:46:58;45.08;;;26.98;;
67378;SDS011;54262;44.642;-0.974;2024-02-04T00:49:23;49.85;;;25.58;;
67378;SDS011;54262;44.642;-0.974;2024-02-04T00:51:51;31.73;;;26.38;;
67378;SDS011;54262;44.642;-0.974;2024-02-04T00:54:17;39.30;;;22.27;;
67378;SDS011;54262;44.642;-0.974;2024-02-04T00:56:43;24.85;;;20.45;;
67378;SDS011;54262;44.642;-0.974;2024-02-04T00:59:08;55.63;;;27.58;;
67378;SDS011;54262;44.642;-0.974;2024-02-04T01:01:34;35.00;;;22.50;;
67378;SDS011;54262;44.642;-0.974;2024-02-04T01:04:00;41.67;;;24.20;;
67378;SDS011;54262;44.642;-0.974;2024-02-04T01:06:25;39.80;;;22.05;;
67378;SDS011;54262;44.642;-0.974;2024-02-04T01:09:00;23.48;;;21.08;;
67378;SDS011;54262;44.642;-0.974;2024-02-04T01:11:26;18.70;;;17.13;;
67378;SDS011;54262;44.642;-0.974;2024-02-04T01:13:51;23.15;;;20.77;;
67378;SDS011;54262;44.642;-0.974;2024-02-04T01:16:19;14.40;;;13.60;;
67378;SDS011;54262;44.642;-0.974;2024-02-04T01:18:45;14.38;;;13.27;;
67378;SDS011;54262;44.642;-0.974;2024-02-04T01:21:10;21.70;;;19.00;;
67378;SDS011;54262;44.642;-0.974;2024-02-04T01:23:36;14.65;;;13.73;;
67378;SDS011;54262;44.642;-0.974;2024-02-04T01:26:02;16.10;;;15.07;;
67378;SDS011;54262;44.642;-0.974;2024-02-04T01:28:27;17.77;;;16.23;;
67378;SDS011;54262;44.642;-0.974;2024-02-04T01:30:53;13.50;;;12.52;;
67378;SDS011;54262;44.642;-0.974;2024-02-04T01:33:18;15.35;;;13.93;;
67378;SDS011;54262;44.642;-0.974;2024-02-04T01:35:44;15.30;;;14.23;;
67378;SDS011;54262;44.642;-0.974;2024-02-04T01:38:10;16.13;;;14.88;;
67378;SDS011;54262;44.642;-0.974;2024-02-04T01:40:35;14.50;;;12.55;;
67378;SDS011;54262;44.642;-0.974;2024-02-04T01:43:04;19.77;;;18.20;;
67378;SDS011;54262;44.642;-0.974;2024-02-04T01:45:30;13.52;;;12.57;;
67378;SDS011;54262;44.642;-0.974;2024-02-04T01:47:56;13.05;;;11.93;;
67378;SDS011;54262;44.642;-0.974;2024-02-04T01:50:22;19.65;;;13.32;;
67378;SDS011;54262;44.642;-0.974;2024-02-04T01:52:51;12.70;;;11.75;;
67378;SDS011;54262;44.642;-0.974;2024-02-04T01:55:17;12.82;;;12.05;;
67378;SDS011;54262;44.642;-0.974;2024-02-04T01:57:43;11.93;;;10.80;;
67378;SDS011;54262;44.642;-0.974;2024-02-04T02:00:09;18.75;;;13.38;;
67378;SDS011;54262;44.642;-0.974;2024-02-04T02:02:39;13.23;;;11.57;;
67378;SDS011;54262;44.642;-0.974;2024-02-04T02:05:06;14.13;;;13.23;;
67378;SDS011;54262;44.642;-0.974;2024-02-04T02:07:33;10.15;;;9.60;;
67378;SDS011;54262;44.642;-0.974;2024-02-04T02:10:01;16.20;;;9.60;;
67378;SDS011;54262;44.642;-0.974;2024-02-04T02:12:27;9.93;;;9.13;;
67378;SDS011;54262;44.642;-0.974;2024-02-04T02:15:14;12.25;;;11.35;;
67378;SDS011;54262;44.642;-0.974;2024-02-04T02:23:31;12.50;;;11.65;;
67378;SDS011;54262;44.642;-0.974;2024-02-04T02:26:02;13.77;;;10.07;;
67378;SDS011;54262;44.642;-0.974;2024-02-04T02:28:29;9.43;;;8.93;;
67378;SDS011;54262;44.642;-0.974;2024-02-04T02:30:54;11.75;;;10.48;;
67378;SDS011;54262;44.642;-0.974;2024-02-04T02:33:20;10.18;;;9.57;;
67378;SDS011;54262;44.642;-0.974;2024-02-04T02:35:46;11.05;;;10.25;;
67378;SDS011;54262;44.642;-0.974;2024-02-04T02:38:37;12.00;;;11.07;;
67378;SDS011;54262;44.642;-0.974;2024-02-04T02:41:09;9.30;;;8.90;;
67378;SDS011;54262;44.642;-0.974;2024-02-04T02:43:37;12.20;;;11.50;;
67378;SDS011;54262;44.642;-0.974;2024-02-04T02:46:05;14.90;;;13.52;;
67378;SDS011;54262;44.642;-0.974;2024-02-04T02:48:32;12.85;;;9.35;;
67378;SDS011;54262;44.642;-0.974;2024-02-04T02:50:58;14.82;;;13.73;;
67378;SDS011;54262;44.642;-0.974;2024-02-04T02:53:24;11.15;;;10.20;;
67378;SDS011;54262;44.642;-0.974;2024-02-04T02:55:50;13.65;;;10.88;;
67378;SDS011;54262;44.642;-0.974;2024-02-04T02:58:15;9.38;;;8.50;;
67378;SDS011;54262;44.642;-0.974;2024-02-04T03:00:41;19.08;;;13.88;;
67378;SDS011;54262;44.642;-0.974;2024-02-04T03:03:06;17.60;;;10.88;;
67378;SDS011;54262;44.642;-0.974;2024-02-04T03:05:32;20.95;;;16.52;;
67378;SDS011;54262;44.642;-0.974;2024-02-04T03:07:58;12.60;;;10.75;;
67378;SDS011;54262;44.642;-0.974;2024-02-04T03:10:26;13.35;;;11.00;;
67378;SDS011;54262;44.642;-0.974;2024-02-04T03:12:51;12.07;;;11.07;;
67378;SDS011;54262;44.642;-0.974;2024-02-04T03:15:17;13.70;;;11.07;;
67378;SDS011;54262;44.642;-0.974;2024-02-04T03:17:45;16.60;;;14.48;;
67378;SDS011;54262;44.642;-0.974;2024-02-04T03:20:10;10.30;;;9.70;;
67378;SDS011;54262;44.642;-0.974;2024-02-04T03:22:36;12.68;;;11.60;;
67378;SDS011;54262;44.642;-0.974;2024-02-04T03:25:02;19.15;;;17.27;;
67378;SDS011;54262;44.642;-0.974;2024-02-04T03:27:28;9.57;;;8.90;;
67378;SDS011;54262;44.642;-0.974;2024-02-04T03:29:53;10.13;;;9.43;;
67378;SDS011;54262;44.642;-0.974;2024-02-04T03:32:19;13.60;;;11.40;;
67378;SDS011;54262;44.642;-0.974;2024-02-04T03:34:44;13.02;;;11.15;;
67378;SDS011;54262;44.642;-0.974;2024-02-04T03:37:10;14.35;;;12.70;;
67378;SDS011;54262;44.642;-0.974;2024-02-04T03:39:36;9.70;;;9.30;;
67378;SDS011;54262;44.642;-0.974;2024-02-04T03:42:01;9.18;;;8.77;;
67378;SDS011;54262;44.642;-0.974;2024-02-04T03:44:27;12.77;;;10.40;;
67378;SDS011;54262;44.642;-0.974;2024-02-04T03:46:53;11.80;;;10.68;;
67378;SDS011;54262;44.642;-0.974;2024-02-04T03:49:19;35.70;;;12.52;;
67378;SDS011;54262;44.642;-0.974;2024-02-04T03:51:45;8.80;;;8.40;;
67378;SDS011;54262;44.642;-0.974;2024-02-04T03:54:11;11.63;;;10.98;;
67378;SDS011;54262;44.642;-0.974;2024-02-04T03:56:36;9.73;;;9.27;;
67378;SDS011;54262;44.642;-0.974;2024-02-04T03:59:02;10.68;;;10.18;;
67378;SDS011;54262;44.642;-0.974;2024-02-04T04:01:28;9.82;;;9.15;;
67378;SDS011;54262;44.642;-0.974;2024-02-04T04:03:53;10.18;;;9.55;;
67378;SDS011;54262;44.642;-0.974;2024-02-04T04:06:19;9.35;;;8.10;;
67378;SDS011;54262;44.642;-0.974;2024-02-04T04:08:45;8.40;;;8.00;;
67378;SDS011;54262;44.642;-0.974;2024-02-04T04:11:13;9.02;;;8.63;;
67378;SDS011;54262;44.642;-0.974;2024-02-04T04:13:42;7.25;;;6.75;;
67378;SDS011;54262;44.642;-0.974;2024-02-04T04:16:07;7.30;;;7.00;;
67378;SDS011;54262;44.642;-0.974;2024-02-04T04:18:35;6.13;;;5.85;;
67378;SDS011;54262;44.642;-0.974;2024-02-04T04:21:01;5.47;;;5.07;;
67378;SDS011;54262;44.642;-0.974;2024-02-04T04:23:30;5.00;;;4.80;;
67378;SDS011;54262;44.642;-0.974;2024-02-04T04:25:55;4.28;;;4.18;;
67378;SDS011;54262;44.642;-0.974;2024-02-04T04:28:21;3.80;;;3.70;;
67378;SDS011;54262;44.642;-0.974;2024-02-04T04:30:47;4.47;;;4.28;;
67378;SDS011;54262;44.642;-0.974;2024-02-04T04:33:12;3.95;;;3.75;;
67378;SDS011;54262;44.642;-0.974;2024-02-04T04:35:38;4.65;;;4.45;;
67378;SDS011;54262;44.642;-0.974;2024-02-04T04:38:04;4.13;;;4.00;;
67378;SDS011;54262;44.642;-0.974;2024-02-04T04:40:29;4.50;;;4.30;;
67378;SDS011;54262;44.642;-0.974;2024-02-04T04:42:56;4.65;;;4.45;;
67378;SDS011;54262;44.642;-0.974;2024-02-04T04:45:22;4.43;;;4.22;;
67378;SDS011;54262;44.642;-0.974;2024-02-04T04:47:48;3.78;;;3.67;;
67378;SDS011;54262;44.642;-0.974;2024-02-04T04:50:13;4.68;;;4.47;;
67378;SDS011;54262;44.642;-0.974;2024-02-04T04:52:40;4.40;;;4.20;;
67378;SDS011;54262;44.642;-0.974;2024-02-04T04:55:05;4.55;;;4.35;;
67378;SDS011;54262;44.642;-0.974;2024-02-04T04:57:35;4.07;;;3.88;;
67378;SDS011;54262;44.642;-0.974;2024-02-04T05:00:00;3.85;;;3.75;;
67378;SDS011;54262;44.642;-0.974;2024-02-04T05:02:31;3.35;;;3.25;;
67378;SDS011;54262;44.642;-0.974;2024-02-04T05:04:57;3.03;;;2.92;;
67378;SDS011;54262;44.642;-0.974;2024-02-04T05:07:23;3.78;;;3.67;;
67378;SDS011;54262;44.642;-0.974;2024-02-04T05:09:49;4.88;;;4.68;;
67378;SDS011;54262;44.642;-0.974;2024-02-04T05:12:16;4.03;;;3.83;;
67378;SDS011;54262;44.642;-0.974;2024-02-04T05:14:42;3.65;;;3.55;;
67378;SDS011;54262;44.642;-0.974;2024-02-04T05:17:08;3.35;;;3.25;;
67378;SDS011;54262;44.642;-0.974;2024-02-04T05:19:36;3.28;;;3.17;;
67378;SDS011;54262;44.642;-0.974;2024-02-04T05:22:02;3.47;;;3.38;;
67378;SDS011;54262;44.642;-0.974;2024-02-04T05:24:28;3.58;;;3.47;;
67378;SDS011;54262;44.642;-0.974;2024-02-04T05:26:53;4.03;;;3.83;;
67378;SDS011;54262;44.642;-0.974;2024-02-04T05:29:19;3.63;;;3.53;;
67378;SDS011;54262;44.642;-0.974;2024-02-04T05:31:45;3.92;;;3.78;;
67378;SDS011;54262;44.642;-0.974;2024-02-04T05:34:11;3.17;;;3.08;;
67378;SDS011;54262;44.642;-0.974;2024-02-04T05:36:37;3.28;;;3.17;;
67378;SDS011;54262;44.642;-0.974;2024-02-04T05:39:12;3.30;;;3.20;;
67378;SDS011;54262;44.642;-0.974;2024-02-04T05:41:40;3.50;;;3.40;;
67378;SDS011;54262;44.642;-0.974;2024-02-04T05:44:06;4.20;;;4.00;;
67378;SDS011;54262;44.642;-0.974;2024-02-04T05:46:34;3.28;;;3.17;;
67378;SDS011;54262;44.642;-0.974;2024-02-04T05:49:03;3.20;;;3.10;;
67378;SDS011;54262;44.642;-0.974;2024-02-04T05:51:31;3.13;;;3.03;;
67378;SDS011;54262;44.642;-0.974;2024-02-04T05:53:58;4.82;;;4.63;;
67378;SDS011;54262;44.642;-0.974;2024-02-04T05:56:24;3.67;;;3.58;;
67378;SDS011;54262;44.642;-0.974;2024-02-04T05:58:49;4.30;;;4.13;;
67378;SDS011;54262;44.642;-0.974;2024-02-04T06:01:16;9.93;;;5.43;;
67378;SDS011;54262;44.642;-0.974;2024-02-04T06:03:42;4.65;;;4.45;;
67378;SDS011;54262;44.642;-0.974;2024-02-04T06:06:09;4.95;;;4.65;;
67378;SDS011;54262;44.642;-0.974;2024-02-04T06:08:39;8.90;;;4.32;;
67378;SDS011;54262;44.642;-0.974;2024-02-04T06:11:05;5.32;;;4.93;;
67378;SDS011;54262;44.642;-0.974;2024-02-04T06:13:33;7.50;;;3.80;;
67378;SDS011;54262;44.642;-0.974;2024-02-04T06:15:58;5.65;;;5.10;;
67378;SDS011;54262;44.642;-0.974;2024-02-04T06:18:24;4.57;;;4.28;;
67378;SDS011;54262;44.642;-0.974;2024-02-04T06:20:52;4.93;;;4.47;;
67378;SDS011;54262;44.642;-0.974;2024-02-04T06:23:17;12.38;;;3.22;;
67378;SDS011;54262;44.642;-0.974;2024-02-04T06:25:44;4.28;;;4.07;;
67378;SDS011;54262;44.642;-0.974;2024-02-04T06:28:10;2.97;;;2.88;;
67378;SDS011;54262;44.642;-0.974;2024-02-04T06:30:36;3.55;;;3.45;;
67378;SDS011;54262;44.642;-0.974;2024-02-04T06:33:01;7.05;;;3.03;;
67378;SDS011;54262;44.642;-0.974;2024-02-04T06:35:28;8.68;;;3.75;;
67378;SDS011;54262;44.642;-0.974;2024-02-04T06:37:54;2.85;;;2.75;;
67378;SDS011;54262;44.642;-0.974;2024-02-04T06:40:19;7.55;;;4.10;;
67378;SDS011;54262;44.642;-0.974;2024-02-04T06:42:45;4.97;;;3.33;;
67378;SDS011;54262;44.642;-0.974;2024-02-04T06:45:11;3.15;;;3.05;;
67378;SDS011;54262;44.642;-0.974;2024-02-04T06:47:36;4.65;;;4.38;;
67378;SDS011;54262;44.642;-0.974;2024-02-04T06:50:02;2.97;;;2.88;;
67378;SDS011;54262;44.642;-0.974;2024-02-04T06:52:30;2.67;;;2.58;;
67378;SDS011;54262;44.642;-0.974;2024-02-04T06:54:56;3.08;;;2.80;;
67378;SDS011;54262;44.642;-0.974;2024-02-04T06:57:22;4.38;;;4.18;;
67378;SDS011;54262;44.642;-0.974;2024-02-04T06:59:47;2.90;;;2.80;;
67378;SDS011;54262;44.642;-0.974;2024-02-04T07:02:13;2.70;;;2.60;;
67378;SDS011;54262;44.642;-0.974;2024-02-04T07:04:39;2.65;;;2.55;;
67378;SDS011;54262;44.642;-0.974;2024-02-04T07:07:04;3.47;;;3.28;;
67378;SDS011;54262;44.642;-0.974;2024-02-04T07:09:30;3.20;;;3.10;;
67378;SDS011;54262;44.642;-0.974;2024-02-04T07:11:56;5.82;;;5.53;;
67378;SDS011;54262;44.642;-0.974;2024-02-04T07:14:24;4.20;;;3.35;;
67378;SDS011;54262;44.642;-0.974;2024-02-04T07:16:49;6.20;;;5.90;;
67378;SDS011;54262;44.642;-0.974;2024-02-04T07:19:15;4.55;;;4.35;;
67378;SDS011;54262;44.642;-0.974;2024-02-04T07:21:43;3.88;;;3.38;;
67378;SDS011;54262;44.642;-0.974;2024-02-04T07:24:09;4.03;;;3.85;;
67378;SDS011;54262;44.642;-0.974;2024-02-04T07:26:35;5.35;;;5.05;;
67378;SDS011;54262;44.642;-0.974;2024-02-04T07:29:00;3.25;;;3.15;;
67378;SDS011;54262;44.642;-0.974;2024-02-04T07:31:26;3.22;;;3.13;;
67378;SDS011;54262;44.642;-0.974;2024-02-04T07:33:52;5.18;;;4.93;;
67378;SDS011;54262;44.642;-0.974;2024-02-04T07:36:20;7.20;;;6.53;;
67378;SDS011;54262;44.642;-0.974;2024-02-04T07:38:46;3.55;;;3.15;;
67378;SDS011;54262;44.642;-0.974;2024-02-04T07:41:15;3.22;;;2.95;;
67378;SDS011;54262;44.642;-0.974;2024-02-04T07:43:41;3.47;;;3.38;;
67378;SDS011;54262;44.642;-0.974;2024-02-04T07:46:07;3.40;;;3.30;;
67378;SDS011;54262;44.642;-0.974;2024-02-04T07:48:33;5.38;;;5.07;;
67378;SDS011;54262;44.642;-0.974;2024-02-04T07:50:59;3.30;;;3.20;;
67378;SDS011;54262;44.642;-0.974;2024-02-04T07:53:25;5.10;;;4.70;;
67378;SDS011;54262;44.642;-0.974;2024-02-04T07:55:51;3.10;;;3.00;;
67378;SDS011;54262;44.642;-0.974;2024-02-04T07:58:16;2.75;;;2.65;;
67378;SDS011;54262;44.642;-0.974;2024-02-04T08:00:42;3.65;;;3.55;;
67378;SDS011;54262;44.642;-0.974;2024-02-04T08:03:08;4.03;;;3.92;;
67378;SDS011;54262;44.642;-0.974;2024-02-04T08:05:34;2.80;;;2.70;;
67378;SDS011;54262;44.642;-0.974;2024-02-04T08:08:02;4.10;;;3.90;;
67378;SDS011;54262;44.642;-0.974;2024-02-04T08:10:28;4.60;;;4.40;;
67378;SDS011;54262;44.642;-0.974;2024-02-04T08:12:54;3.00;;;2.80;;
67378;SDS011;54262;44.642;-0.974;2024-02-04T08:15:27;2.85;;;2.75;;
67378;SDS011;54262;44.642;-0.974;2024-02-04T08:17:53;2.78;;;2.67;;
67378;SDS011;54262;44.642;-0.974;2024-02-04T08:20:18;2.42;;;2.33;;
67378;SDS011;54262;44.642;-0.974;2024-02-04T08:22:46;2.95;;;2.85;;
67378;SDS011;54262;44.642;-0.974;2024-02-04T08:25:12;2.00;;;1.90;;
67378;SDS011;54262;44.642;-0.974;2024-02-04T08:27:38;2.60;;;2.40;;
67378;SDS011;54262;44.642;-0.974;2024-02-04T08:30:04;1.67;;;1.67;;
67378;SDS011;54262;44.642;-0.974;2024-02-04T08:32:31;2.13;;;2.10;;
67378;SDS011;54262;44.642;-0.974;2024-02-04T08:34:56;2.50;;;2.03;;
67378;SDS011;54262;44.642;-0.974;2024-02-04T08:37:22;2.25;;;2.15;;
67378;SDS011;54262;44.642;-0.974;2024-02-04T08:39:48;1.52;;;1.52;;
67378;SDS011;54262;44.642;-0.974;2024-02-04T08:42:14;2.40;;;2.30;;
67378;SDS011;54262;44.642;-0.974;2024-02-04T08:44:40;1.70;;;1.70;;
67378;SDS011;54262;44.642;-0.974;2024-02-04T08:47:12;1.88;;;1.77;;
67378;SDS011;54262;44.642;-0.974;2024-02-04T08:49:39;1.85;;;1.85;;
67378;SDS011;54262;44.642;-0.974;2024-02-04T08:52:05;1.30;;;1.30;;
67378;SDS011;54262;44.642;-0.974;2024-02-04T08:54:31;2.03;;;1.92;;
67378;SDS011;54262;44.642;-0.974;2024-02-04T08:56:56;2.20;;;2.10;;
67378;SDS011;54262;44.642;-0.974;2024-02-04T08:59:22;1.92;;;1.83;;
67378;SDS011;54262;44.642;-0.974;2024-02-04T09:01:49;1.45;;;1.45;;
67378;SDS011;54262;44.642;-0.974;2024-02-04T09:04:15;2.60;;;2.50;;
67378;SDS011;54262;44.642;-0.974;2024-02-04T09:06:41;2.47;;;2.28;;
67378;SDS011;54262;44.642;-0.974;2024-02-04T09:09:06;2.20;;;2.10;;
67378;SDS011;54262;44.642;-0.974;2024-02-04T09:11:34;3.03;;;2.92;;
67378;SDS011;54262;44.642;-0.974;2024-02-04T09:14:00;1.98;;;1.88;;
67378;SDS011;54262;44.642;-0.974;2024-02-04T09:16:28;1.90;;;1.85;;
67378;SDS011;54262;44.642;-0.974;2024-02-04T09:18:53;2.38;;;2.28;;
67378;SDS011;54262;44.642;-0.974;2024-02-04T09:21:19;1.80;;;1.75;;
67378;SDS011;54262;44.642;-0.974;2024-02-04T09:23:47;2.35;;;2.25;;
67378;SDS011;54262;44.642;-0.974;2024-02-04T09:26:13;2.08;;;2.00;;
67378;SDS011;54262;44.642;-0.974;2024-02-04T09:28:39;2.35;;;2.25;;
67378;SDS011;54262;44.642;-0.974;2024-02-04T09:31:07;2.35;;;2.25;;
67378;SDS011;54262;44.642;-0.974;2024-02-04T09:33:33;3.25;;;3.15;;
67378;SDS011;54262;44.642;-0.974;2024-02-04T09:36:00;1.73;;;1.63;;
67378;SDS011;54262;44.642;-0.974;2024-02-04T09:38:26;2.05;;;1.95;;
67378;SDS011;54262;44.642;-0.974;2024-02-04T09:40:51;3.08;;;2.97;;
67378;SDS011;54262;44.642;-0.974;2024-02-04T09:43:17;3.25;;;3.15;;
67378;SDS011;54262;44.642;-0.974;2024-02-04T09:45:44;2.92;;;2.83;;
67378;SDS011;54262;44.642;-0.974;2024-02-04T09:48:09;2.70;;;2.60;;
67378;SDS011;54262;44.642;-0.974;2024-02-04T09:50:36;1.50;;;1.50;;
67378;SDS011;54262;44.642;-0.974;2024-02-04T09:53:03;1.90;;;1.80;;
67378;SDS011;54262;44.642;-0.974;2024-02-04T09:55:32;1.35;;;1.35;;
67378;SDS011;54262;44.642;-0.974;2024-02-04T09:57:59;1.60;;;1.60;;
67378;SDS011;54262;44.642;-0.974;2024-02-04T10:00:26;5.40;;;5.15;;
67378;SDS011;54262;44.642;-0.974;2024-02-04T10:02:54;1.60;;;1.50;;
67378;SDS011;54262;44.642;-0.974;2024-02-04T10:05:20;1.80;;;1.80;;
67378;SDS011;54262;44.642;-0.974;2024-02-04T10:07:46;1.70;;;1.70;;
67378;SDS011;54262;44.642;-0.974;2024-02-04T10:10:12;1.60;;;1.60;;
67378;SDS011;54262;44.642;-0.974;2024-02-04T10:12:38;2.08;;;1.80;;
67378;SDS011;54262;44.642;-0.974;2024-02-04T10:15:06;1.63;;;1.63;;
67378;SDS011;54262;44.642;-0.974;2024-02-04T10:17:35;1.50;;;1.50;;
67378;SDS011;54262;44.642;-0.974;2024-02-04T10:20:00;2.70;;;1.85;;
67378;SDS011;54262;44.642;-0.974;2024-02-04T10:22:27;2.08;;;1.98;;
67378;SDS011;54262;44.642;-0.974;2024-02-04T10:25:10;1.65;;;1.60;;
67378;SDS011;54262;44.642;-0.974;2024-02-04T10:30:06;1.52;;;1.52;;
67378;SDS011;54262;44.642;-0.974;2024-02-04T10:32:32;2.78;;;2.67;;
67378;SDS011;54262;44.642;-0.974;2024-02-04T10:34:59;1.75;;;1.65;;
67378;SDS011;54262;44.642;-0.974;2024-02-04T10:37:26;2.35;;;2.25;;
67378;SDS011;54262;44.642;-0.974;2024-02-04T10:39:52;2.63;;;2.53;;
67378;SDS011;54262;44.642;-0.974;2024-02-04T10:42:17;2.67;;;2.58;;
67378;SDS011;54262;44.642;-0.974;2024-02-04T10:44:53;1.67;;;1.67;;
67378;SDS011;54262;44.642;-0.974;2024-02-04T10:47:23;1.77;;;1.77;;
67378;SDS011;54262;44.642;-0.974;2024-02-04T10:49:50;1.83;;;1.73;;
67378;SDS011;54262;44.642;-0.974;2024-02-04T10:52:20;2.22;;;2.13;;
67378;SDS011;54262;44.642;-0.974;2024-02-04T10:54:47;2.38;;;2.17;;
67378;SDS011;54262;44.642;-0.974;2024-02-04T10:57:14;2.10;;;2.00;;
67378;SDS011;54262;44.642;-0.974;2024-02-04T10:59:46;5.80;;;5.50;;
67378;SDS011;54262;44.642;-0.974;2024-02-04T11:02:13;1.98;;;1.88;;
67378;SDS011;54262;44.642;-0.974;2024-02-04T11:04:41;2.05;;;1.95;;
67378;SDS011;54262;44.642;-0.974;2024-02-04T11:07:07;6.45;;;6.05;;
67378;SDS011;54262;44.642;-0.974;2024-02-04T11:09:36;2.15;;;2.05;;
67378;SDS011;54262;44.642;-0.974;2024-02-04T11:12:02;1.98;;;1.88;;
67378;SDS011;54262;44.642;-0.974;2024-02-04T11:14:32;2.50;;;2.40;;
67378;SDS011;54262;44.642;-0.974;2024-02-04T11:17:06;2.42;;;2.33;;
67378;SDS011;54262;44.642;-0.974;2024-02-04T11:23:02;4.07;;;1.92;;
67378;SDS011;54262;44.642;-0.974;2024-02-04T11:25:43;1.85;;;1.83;;
67378;SDS011;54262;44.642;-0.974;2024-02-04T11:28:12;2.13;;;2.03;;
67378;SDS011;54262;44.642;-0.974;2024-02-04T11:30:38;2.10;;;2.00;;
67378;SDS011;54262;44.642;-0.974;2024-02-04T11:33:05;2.20;;;2.10;;
67378;SDS011;54262;44.642;-0.974;2024-02-04T11:35:34;1.73;;;1.67;;
67378;SDS011;54262;44.642;-0.974;2024-02-04T11:38:02;1.55;;;1.55;;
67378;SDS011;54262;44.642;-0.974;2024-02-04T11:40:33;1.40;;;1.40;;
67378;SDS011;54262;44.642;-0.974;2024-02-04T11:43:06;1.48;;;1.40;;
67378;SDS011;54262;44.642;-0.974;2024-02-04T11:45:33;1.42;;;1.42;;
67378;SDS011;54262;44.642;-0.974;2024-02-04T11:48:09;1.40;;;1.40;;
67378;SDS011;54262;44.642;-0.974;2024-02-04T11:50:36;1.40;;;1.40;;
67378;SDS011;54262;44.642;-0.974;2024-02-04T11:53:06;1.35;;;1.35;;
67378;SDS011;54262;44.642;-0.974;2024-02-04T11:55:36;2.15;;;2.05;;
67378;SDS011;54262;44.642;-0.974;2024-02-04T11:58:08;1.08;;;1.08;;
67378;SDS011;54262;44.642;-0.974;2024-02-04T12:00:36;1.20;;;1.20;;
67378;SDS011;54262;44.642;-0.974;2024-02-04T12:03:03;1.20;;;1.20;;
67378;SDS011;54262;44.642;-0.974;2024-02-04T12:05:33;1.13;;;1.13;;
67378;SDS011;54262;44.642;-0.974;2024-02-04T12:08:04;1.45;;;1.42;;
67378;SDS011;54262;44.642;-0.974;2024-02-04T12:10:31;1.40;;;1.40;;
67378;SDS011;54262;44.642;-0.974;2024-02-04T12:12:59;1.58;;;1.48;;
67378;SDS011;54262;44.642;-0.974;2024-02-04T12:15:29;1.65;;;1.55;;
67378;SDS011;54262;44.642;-0.974;2024-02-04T12:17:55;1.10;;;1.10;;
67378;SDS011;54262;44.642;-0.974;2024-02-04T12:20:32;1.25;;;1.25;;
67378;SDS011;54262;44.642;-0.974;2024-02-04T12:22:58;1.10;;;1.10;;
67378;SDS011;54262;44.642;-0.974;2024-02-04T12:25:24;2.17;;;1.20;;
67378;SDS011;54262;44.642;-0.974;2024-02-04T12:27:52;1.10;;;1.10;;
67378;SDS011;54262;44.642;-0.974;2024-02-04T12:30:18;1.20;;;1.20;;
67378;SDS011;54262;44.642;-0.974;2024-02-04T12:32:44;1.00;;;1.00;;
67378;SDS011;54262;44.642;-0.974;2024-02-04T12:35:15;0.90;;;0.90;;
67378;SDS011;54262;44.642;-0.974;2024-02-04T12:37:53;1.80;;;1.70;;
67378;SDS011;54262;44.642;-0.974;2024-02-04T12:40:24;1.42;;;1.42;;
67378;SDS011;54262;44.642;-0.974;2024-02-04T12:42:52;1.67;;;1.58;;
67378;SDS011;54262;44.642;-0.974;2024-02-04T12:45:22;2.15;;;2.05;;
67378;SDS011;54262;44.642;-0.974;2024-02-04T12:47:52;2.22;;;2.20;;
67378;SDS011;54262;44.642;-0.974;2024-02-04T12:50:19;1.08;;;1.08;;
67378;SDS011;54262;44.642;-0.974;2024-02-04T12:52:46;1.60;;;1.60;;
67378;SDS011;54262;44.642;-0.974;2024-02-04T12:55:19;1.92;;;1.83;;
67378;SDS011;54262;44.642;-0.974;2024-02-04T13:00:12;1.73;;;1.73;;
67378;SDS011;54262;44.642;-0.974;2024-02-04T13:02:38;1.98;;;1.88;;
67378;SDS011;54262;44.642;-0.974;2024-02-04T13:05:05;1.33;;;1.33;;
67378;SDS011;54262;44.642;-0.974;2024-02-04T13:07:30;2.10;;;2.00;;
67378;SDS011;54262;44.642;-0.974;2024-02-04T13:09:59;1.92;;;1.83;;
67378;SDS011;54262;44.642;-0.974;2024-02-04T13:12:25;1.42;;;1.42;;
67378;SDS011;54262;44.642;-0.974;2024-02-04T13:14:51;1.60;;;1.60;;
67378;SDS011;54262;44.642;-0.974;2024-02-04T13:17:16;1.70;;;1.70;;
67378;SDS011;54262;44.642;-0.974;2024-02-04T13:19:42;1.83;;;1.52;;
67378;SDS011;54262;44.642;-0.974;2024-02-04T13:22:11;2.15;;;2.05;;
67378;SDS011;54262;44.642;-0.974;2024-02-04T13:24:39;1.00;;;1.00;;
67378;SDS011;54262;44.642;-0.974;2024-02-04T13:27:05;1.15;;;1.15;;
67378;SDS011;54262;44.642;-0.974;2024-02-04T13:29:38;1.50;;;1.40;;
67378;SDS011;54262;44.642;-0.974;2024-02-04T13:32:04;2.17;;;2.08;;
67378;SDS011;54262;44.642;-0.974;2024-02-04T13:34:30;1.10;;;1.10;;
67378;SDS011;54262;44.642;-0.974;2024-02-04T13:36:56;1.40;;;1.40;;
67378;SDS011;54262;44.642;-0.974;2024-02-04T13:39:21;2.28;;;2.17;;
67378;SDS011;54262;44.642;-0.974;2024-02-04T13:41:47;1.98;;;1.88;;
67378;SDS011;54262;44.642;-0.974;2024-02-04T13:44:14;1.50;;;1.50;;
67378;SDS011;54262;44.642;-0.974;2024-02-04T13:46:40;4.90;;;4.60;;
67378;SDS011;54262;44.642;-0.974;2024-02-04T13:49:07;3.15;;;2.95;;
67378;SDS011;54262;44.642;-0.974;2024-02-04T13:51:34;1.27;;;1.27;;
67378;SDS011;54262;44.642;-0.974;2024-02-04T13:54:01;1.20;;;1.20;;
67378;SDS011;54262;44.642;-0.974;2024-02-04T13:56:26;1.55;;;1.50;;
67378;SDS011;54262;44.642;-0.974;2024-02-04T13:58:54;1.20;;;1.20;;
67378;SDS011;54262;44.642;-0.974;2024-02-04T14:01:20;2.47;;;1.42;;
67378;SDS011;54262;44.642;-0.974;2024-02-04T14:03:47;1.10;;;0.90;;
67378;SDS011;54262;44.642;-0.974;2024-02-04T14:06:14;1.10;;;1.10;;
67378;SDS011;54262;44.642;-0.974;2024-02-04T14:08:40;1.80;;;1.80;;
67378;SDS011;54262;44.642;-0.974;2024-02-04T14:11:06;1.67;;;1.58;;
67378;SDS011;54262;44.642;-0.974;2024-02-04T14:13:32;1.52;;;1.52;;
67378;SDS011;54262;44.642;-0.974;2024-02-04T14:15:58;1.35;;;1.35;;
67378;SDS011;54262;44.642;-0.974;2024-02-04T14:18:30;1.35;;;1.35;;
67378;SDS011;54262;44.642;-0.974;2024-02-04T14:20:55;1.75;;;1.65;;
67378;SDS011;54262;44.642;-0.974;2024-02-04T14:23:23;1.58;;;1.58;;
67378;SDS011;54262;44.642;-0.974;2024-02-04T14:25:49;2.58;;;2.47;;
67378;SDS011;54262;44.642;-0.974;2024-02-04T14:28:15;2.25;;;2.15;;
67378;SDS011;54262;44.642;-0.974;2024-02-04T14:30:43;2.63;;;2.53;;
67378;SDS011;54262;44.642;-0.974;2024-02-04T14:33:08;1.77;;;1.67;;
67378;SDS011;54262;44.642;-0.974;2024-02-04T14:35:34;2.47;;;2.38;;
67378;SDS011;54262;44.642;-0.974;2024-02-04T14:38:00;2.10;;;2.10;;
67378;SDS011;54262;44.642;-0.974;2024-02-04T14:40:27;3.08;;;2.97;;